createdAt,value
2017-08-01T04:14:49.058Z,12.0
2017-08-01T04:15:50.709Z,10.8
2017-08-01T04:17:42.608Z,10.0
2017-08-01T04:18:44.439Z,12.1
2017-08-01T04:19:46.101Z,10.1
2017-08-01T04:20:47.777Z,11.9
2017-08-01T04:21:49.443Z,7.5
2017-08-01T04:22:51.103Z,8.8
2017-08-01T04:23:52.769Z,9.5
2017-08-01T04:24:54.431Z,10.0
2017-08-01T04:25:56.094Z,8.3
2017-08-01T04:26:57.750Z,5.7
2017-08-01T04:27:59.463Z,7.1
2017-08-01T04:29:01.130Z,6.3
2017-08-01T04:31:12.820Z,4.7
2017-08-01T04:32:14.498Z,6.4
2017-08-01T04:34:06.396Z,6.1
2017-08-01T04:35:08.068Z,6.5
2017-08-01T04:36:09.729Z,5.5
2017-08-01T04:37:11.401Z,3.2
2017-08-01T04:38:13.071Z,6.2
2017-08-01T04:39:14.736Z,5.7
2017-08-01T04:40:16.401Z,7.6
2017-08-01T04:41:18.068Z,6.5
2017-08-01T04:42:19.736Z,5.2
2017-08-01T04:43:21.406Z,5.4
2017-08-01T04:44:23.066Z,5.3
2017-08-01T04:45:24.727Z,6.1
2017-08-01T04:46:26.389Z,5.6
2017-08-01T04:47:28.053Z,7.4
2017-08-01T04:48:29.724Z,5.8
2017-08-01T04:49:31.383Z,5.9
2017-08-01T04:50:33.044Z,6.5
2017-08-01T04:51:34.709Z,5.5
2017-08-01T04:52:36.400Z,7.6
2017-08-01T04:53:38.061Z,9.0
2017-08-01T04:54:39.730Z,5.9
2017-08-01T04:55:41.394Z,7.4
2017-08-01T04:56:43.061Z,7.2
2017-08-01T04:57:44.724Z,6.5
2017-08-01T04:58:46.389Z,10.0
2017-08-01T04:59:48.057Z,8.7
2017-08-01T05:00:49.726Z,8.7
2017-08-01T05:01:51.392Z,11.2
2017-08-01T05:02:53.063Z,7.2
2017-08-01T05:03:54.737Z,9.3
2017-08-01T05:04:56.394Z,9.1
2017-08-01T05:05:58.092Z,10.4
2017-08-01T05:06:59.746Z,11.4
2017-08-01T05:08:01.410Z,8.0
2017-08-01T05:09:03.143Z,7.7
2017-08-01T05:10:04.808Z,10.4
2017-08-01T05:11:06.471Z,10.7
2017-08-01T05:12:08.146Z,9.1
2017-08-01T05:13:09.825Z,8.9
2017-08-01T05:14:11.492Z,7.8
2017-08-01T05:15:13.163Z,6.5
2017-08-01T05:16:14.826Z,9.9
2017-08-01T05:17:16.486Z,7.8
2017-08-01T05:18:18.156Z,7.7
2017-08-01T05:19:19.830Z,8.9
2017-08-01T05:20:21.494Z,5.7
2017-08-01T05:21:23.174Z,6.2
2017-08-01T05:22:24.842Z,6.5
2017-08-01T05:23:26.517Z,6.8
2017-08-01T05:24:28.188Z,5.3
2017-08-01T05:25:29.852Z,6.9
2017-08-01T05:26:31.516Z,5.6
2017-08-01T05:27:33.188Z,7.2
2017-08-01T05:28:34.857Z,5.3
2017-08-01T05:29:36.524Z,6.2
2017-08-01T05:30:38.196Z,6.3
2017-08-01T05:31:39.870Z,6.1
2017-08-01T05:32:41.540Z,10.0
2017-08-01T05:33:43.204Z,6.5
2017-08-01T05:34:44.890Z,6.3
2017-08-01T05:35:46.559Z,6.1
2017-08-01T05:36:48.225Z,5.5
2017-08-01T05:37:49.900Z,4.8
2017-08-01T05:38:51.564Z,5.0
2017-08-01T05:39:53.229Z,5.8
2017-08-01T05:40:54.894Z,4.1
2017-08-01T05:41:56.558Z,6.7
2017-08-01T05:42:58.234Z,5.4
2017-08-01T05:43:59.901Z,4.7
2017-08-01T05:45:01.581Z,4.8
2017-08-01T05:46:03.243Z,5.4
2017-08-01T05:47:04.912Z,5.6
2017-08-01T05:48:06.588Z,5.6
2017-08-01T05:49:08.258Z,7.4
2017-08-01T05:50:09.929Z,7.3
2017-08-01T05:51:11.597Z,5.9
2017-08-01T05:52:13.269Z,4.7
2017-08-01T05:53:14.961Z,5.9
2017-08-01T05:54:16.602Z,6.8
2017-08-01T05:55:18.275Z,4.9
2017-08-01T05:56:19.945Z,6.6
2017-08-01T05:57:21.603Z,6.1
2017-08-01T05:58:23.275Z,8.5
2017-08-01T05:59:24.946Z,6.5
2017-08-01T06:00:26.616Z,8.8
2017-08-01T06:01:28.280Z,7.6
2017-08-01T06:02:29.943Z,6.8
2017-08-01T06:03:31.611Z,5.9
2017-08-01T06:04:33.282Z,5.8
2017-08-01T06:05:34.940Z,6.9
2017-08-01T06:06:36.613Z,6.7
2017-08-01T06:07:38.410Z,12.0
2017-08-01T06:08:40.076Z,7.2
2017-08-01T06:09:41.751Z,8.1
2017-08-01T06:10:43.417Z,5.6
2017-08-01T06:11:45.079Z,9.7
2017-08-01T06:12:46.757Z,5.9
2017-08-01T06:13:48.421Z,7.4
2017-08-01T06:14:50.095Z,4.3
2017-08-01T06:15:51.763Z,5.6
2017-08-01T06:16:53.429Z,5.3
2017-08-01T06:17:55.117Z,6.0
2017-08-01T06:18:56.775Z,5.0
2017-08-01T06:19:58.445Z,8.0
2017-08-01T06:21:00.144Z,8.0
2017-08-01T06:22:01.818Z,5.5
2017-08-01T06:23:03.485Z,6.3
2017-08-01T06:24:05.151Z,5.2
2017-08-01T06:25:06.815Z,5.9
2017-08-01T06:26:08.481Z,5.7
2017-08-01T06:27:10.167Z,6.2
2017-08-01T06:28:11.833Z,7.9
2017-08-01T06:29:13.517Z,6.7
2017-08-01T06:30:15.185Z,6.4
2017-08-01T06:31:16.851Z,6.4
2017-08-01T06:32:18.514Z,6.2
2017-08-01T06:33:20.184Z,9.4
2017-08-01T06:34:21.849Z,8.1
2017-08-01T06:35:23.527Z,10.7
2017-08-01T06:36:25.193Z,10.0
2017-08-01T06:37:26.854Z,7.2
2017-08-01T06:38:28.538Z,6.2
2017-08-01T06:39:30.203Z,8.2
2017-08-01T06:40:31.867Z,7.4
2017-08-01T06:41:33.559Z,5.3
2017-08-01T06:42:35.230Z,5.4
2017-08-01T06:43:36.898Z,6.2
2017-08-01T06:44:38.564Z,6.1
2017-08-01T06:45:40.234Z,7.7
2017-08-01T06:46:41.903Z,5.9
2017-08-01T06:47:43.564Z,7.6
2017-08-01T06:48:45.226Z,7.5
2017-08-01T06:49:46.892Z,9.1
2017-08-01T06:50:48.582Z,8.2
2017-08-01T06:51:50.247Z,10.2
2017-08-01T06:52:51.910Z,8.5
2017-08-01T06:53:53.575Z,10.3
2017-08-01T06:54:55.254Z,11.2
2017-08-01T06:55:56.914Z,11.8
2017-08-01T06:56:58.588Z,13.2
2017-08-01T06:58:00.259Z,7.8
2017-08-01T06:59:01.927Z,9.5
2017-08-01T07:00:03.598Z,6.2
2017-08-01T07:01:05.271Z,10.9
2017-08-01T07:02:06.939Z,6.8
2017-08-01T07:03:08.612Z,9.0
2017-08-01T07:04:10.275Z,8.3
2017-08-01T07:05:11.947Z,5.7
2017-08-01T07:06:13.612Z,6.4
2017-08-01T07:07:15.287Z,9.1
2017-08-01T07:08:16.956Z,9.7
2017-08-01T07:09:18.632Z,8.3
2017-08-01T07:10:20.305Z,7.5
2017-08-01T07:11:21.978Z,6.5
2017-08-01T07:12:23.653Z,8.1
2017-08-01T07:13:25.320Z,7.4
2017-08-01T07:14:26.989Z,5.2
2017-08-01T07:15:28.661Z,6.2
2017-08-01T07:16:30.338Z,5.6
2017-08-01T07:17:32.012Z,10.8
2017-08-01T07:18:33.675Z,6.7
2017-08-01T07:19:35.378Z,4.6
2017-08-01T07:20:37.056Z,5.2
2017-08-01T07:21:38.732Z,4.1
2017-08-01T07:22:40.398Z,4.4
2017-08-01T07:23:42.075Z,6.0
2017-08-01T07:24:43.746Z,5.2
2017-08-01T07:25:45.416Z,4.4
2017-08-01T07:26:47.087Z,6.1
2017-08-01T07:27:48.761Z,5.2
2017-08-01T07:28:50.433Z,5.0
2017-08-01T07:29:52.119Z,4.8
2017-08-01T07:30:53.797Z,6.0
2017-08-01T07:31:55.452Z,9.5
2017-08-01T07:32:57.124Z,6.4
2017-08-01T07:33:58.796Z,8.4
2017-08-01T07:35:00.461Z,9.0
2017-08-01T07:36:02.133Z,5.9
2017-08-01T07:37:03.799Z,7.2
2017-08-01T07:38:05.467Z,7.2
2017-08-01T07:39:07.148Z,5.8
2017-08-01T07:40:08.823Z,8.2
2017-08-01T07:41:10.497Z,7.1
2017-08-01T07:42:12.172Z,9.0
2017-08-01T07:43:13.852Z,8.9
2017-08-01T07:44:15.515Z,8.9
2017-08-01T07:45:17.188Z,8.8
2017-08-01T07:46:18.855Z,7.3
2017-08-01T07:47:20.533Z,8.6
2017-08-01T07:48:22.200Z,8.1
2017-08-01T07:49:23.864Z,6.2
2017-08-01T07:50:25.532Z,7.1
2017-08-01T07:51:27.202Z,9.8
2017-08-01T07:52:28.876Z,6.8
2017-08-01T07:53:30.538Z,5.1
2017-08-01T07:54:32.218Z,7.3
2017-08-01T07:55:33.891Z,8.2
2017-08-01T07:56:35.557Z,5.5
2017-08-01T07:57:37.231Z,6.9
2017-08-01T07:58:38.907Z,6.1
2017-08-01T07:59:40.570Z,5.8
2017-08-01T08:00:42.238Z,7.8
2017-08-01T08:01:43.915Z,5.6
2017-08-01T08:02:45.586Z,8.2
2017-08-01T08:03:47.252Z,4.8
2017-08-01T08:04:48.920Z,6.1
2017-08-01T08:05:50.626Z,7.0
2017-08-01T08:06:52.261Z,6.4
2017-08-01T08:07:53.995Z,6.2
2017-08-01T08:08:55.645Z,8.5
2017-08-01T08:09:57.323Z,7.6
2017-08-01T08:10:58.990Z,6.8
2017-08-01T08:12:00.666Z,8.3
2017-08-01T08:13:02.334Z,6.5
2017-08-01T08:14:04.021Z,7.5
2017-08-01T08:15:05.695Z,7.4
2017-08-01T08:16:07.366Z,6.3
2017-08-01T08:17:09.031Z,11.4
2017-08-01T08:18:10.716Z,7.2
2017-08-01T08:19:12.388Z,7.7
2017-08-01T08:20:14.057Z,9.1
2017-08-01T08:21:15.734Z,7.3
2017-08-01T08:22:17.398Z,6.1
2017-08-01T08:23:19.134Z,8.9
2017-08-01T08:24:20.806Z,8.1
2017-08-01T08:25:22.522Z,7.2
2017-08-01T08:26:24.197Z,7.0
2017-08-01T08:27:25.884Z,7.3
2017-08-01T08:28:27.554Z,10.2
2017-08-01T08:29:29.264Z,10.9
2017-08-01T08:30:30.940Z,8.1
2017-08-01T08:31:32.630Z,7.2
2017-08-01T08:32:34.288Z,8.5
2017-08-01T08:33:35.963Z,13.1
2017-08-01T08:34:37.633Z,7.6
2017-08-01T08:35:39.304Z,10.4
2017-08-01T08:36:40.973Z,10.1
2017-08-01T08:37:42.651Z,10.9
2017-08-01T08:38:44.320Z,9.1
2017-08-01T08:39:46.001Z,9.4
2017-08-01T08:40:47.651Z,9.4
2017-08-01T08:41:49.315Z,8.8
2017-08-01T08:42:50.990Z,11.3
2017-08-01T08:43:52.655Z,7.8
2017-08-01T08:44:54.334Z,8.0
2017-08-01T08:45:56.009Z,7.8
2017-08-01T08:46:57.672Z,14.1
2017-08-01T08:47:59.339Z,10.3
2017-08-01T08:49:01.007Z,9.4
2017-08-01T08:50:02.668Z,10.5
2017-08-01T08:51:04.367Z,10.6
2017-08-01T08:52:06.066Z,9.0
2017-08-01T08:53:07.734Z,9.6
2017-08-01T08:54:09.404Z,8.3
2017-08-01T08:55:11.065Z,10.0
2017-08-01T08:56:12.734Z,8.3
2017-08-01T08:57:14.441Z,11.0
2017-08-01T08:58:16.111Z,12.3
2017-08-01T08:59:17.782Z,12.9
2017-08-01T09:00:19.483Z,13.3
2017-08-01T09:01:21.147Z,13.3
2017-08-01T09:02:22.809Z,13.8
2017-08-01T09:03:24.489Z,10.5
2017-08-01T09:04:26.136Z,11.2
2017-08-01T09:05:27.812Z,7.5
2017-08-01T09:06:29.480Z,9.5
2017-08-01T09:07:31.144Z,9.2
2017-08-01T09:08:32.850Z,11.1
2017-08-01T09:09:34.531Z,8.7
2017-08-01T09:10:36.198Z,7.3
2017-08-01T09:11:37.857Z,9.0
2017-08-01T09:12:39.523Z,8.7
2017-08-01T09:13:41.203Z,8.8
2017-08-01T09:14:42.874Z,11.9
2017-08-01T09:15:44.575Z,9.7
2017-08-01T09:16:46.221Z,9.8
2017-08-01T09:17:47.892Z,11.9
2017-08-01T09:18:49.555Z,11.9
2017-08-01T09:19:51.221Z,9.2
2017-08-01T09:20:52.888Z,9.8
2017-08-01T09:21:54.565Z,11.0
2017-08-01T09:22:56.232Z,13.9
2017-08-01T09:23:57.896Z,11.8
2017-08-01T09:24:59.590Z,8.4
2017-08-01T09:26:01.260Z,9.5
2017-08-01T09:27:02.944Z,10.6
2017-08-01T09:28:04.621Z,11.8
2017-08-01T09:29:06.285Z,9.2
2017-08-01T09:30:07.955Z,7.7
2017-08-01T09:31:09.618Z,9.0
2017-08-01T09:32:11.283Z,8.5
2017-08-01T09:33:12.963Z,11.4
2017-08-01T09:34:14.630Z,7.8
2017-08-01T09:35:16.296Z,8.1
2017-08-01T09:36:17.966Z,8.3
2017-08-01T09:37:19.635Z,8.5
2017-08-01T09:38:21.311Z,7.6
2017-08-01T09:39:22.982Z,9.2
2017-08-01T09:40:24.647Z,9.0
2017-08-01T09:41:26.323Z,9.7
2017-08-01T09:42:27.989Z,9.1
2017-08-01T09:43:29.661Z,7.7
2017-08-01T09:44:31.325Z,8.3
2017-08-01T09:45:33.001Z,7.2
2017-08-01T09:46:34.677Z,8.5
2017-08-01T09:47:36.340Z,9.0
2017-08-01T09:48:38.016Z,6.4
2017-08-01T09:49:39.687Z,6.8
2017-08-01T09:50:41.904Z,6.4
2017-08-01T09:51:43.573Z,9.4
2017-08-01T09:52:45.238Z,7.5
2017-08-01T09:53:46.909Z,4.7
2017-08-01T09:54:48.576Z,5.5
2017-08-01T09:55:50.252Z,5.7
2017-08-01T09:56:51.922Z,7.2
2017-08-01T09:57:53.605Z,5.7
2017-08-01T09:58:55.270Z,4.7
2017-08-01T09:59:56.950Z,6.8
2017-08-01T10:00:58.630Z,9.1
2017-08-01T10:02:00.303Z,5.8
2017-08-01T10:03:01.994Z,4.9
2017-08-01T10:04:03.941Z,5.7
2017-08-01T10:05:05.615Z,4.8
2017-08-01T10:06:07.290Z,4.4
2017-08-01T10:07:08.969Z,6.2
2017-08-01T10:08:10.644Z,7.0
2017-08-01T10:09:12.318Z,4.9
2017-08-01T10:10:13.988Z,4.5
2017-08-01T10:11:15.664Z,5.1
2017-08-01T10:12:17.345Z,4.6
2017-08-01T10:13:19.026Z,6.0
2017-08-01T10:14:20.703Z,5.2
2017-08-01T10:15:22.376Z,5.2
2017-08-01T10:16:24.056Z,4.3
2017-08-01T10:17:25.745Z,4.9
2017-08-01T10:18:27.421Z,5.1
2017-08-01T10:19:29.099Z,4.1
2017-08-01T10:20:30.778Z,6.9
2017-08-01T10:21:32.455Z,7.2
2017-08-01T10:22:34.128Z,4.3
2017-08-01T10:23:35.817Z,6.1
2017-08-01T10:24:37.495Z,6.0
2017-08-01T10:25:39.171Z,5.4
2017-08-01T10:26:40.848Z,4.8
2017-08-01T10:27:42.527Z,5.1
2017-08-01T10:28:44.208Z,5.8
2017-08-01T10:29:45.896Z,4.3
2017-08-01T10:30:47.587Z,4.5
2017-08-01T10:31:49.252Z,5.4
2017-08-01T10:32:50.929Z,5.5
2017-08-01T10:33:52.613Z,4.5
2017-08-01T10:34:54.289Z,5.4
2017-08-01T10:35:55.970Z,6.6
2017-08-01T10:36:57.652Z,4.5
2017-08-01T10:37:59.327Z,5.9
2017-08-01T10:39:01.009Z,6.0
2017-08-01T10:40:02.705Z,5.0
2017-08-01T10:41:04.384Z,5.1
2017-08-01T10:42:06.062Z,4.7
2017-08-01T10:43:07.753Z,5.7
2017-08-01T10:44:09.431Z,5.9
2017-08-01T10:45:11.111Z,8.3
2017-08-01T10:46:12.789Z,10.1
2017-08-01T10:47:14.465Z,9.7
2017-08-01T10:48:16.147Z,7.6
2017-08-01T10:49:17.827Z,6.6
2017-08-01T10:50:19.506Z,8.1
2017-08-01T10:51:21.186Z,6.4
2017-08-01T10:52:22.890Z,6.3
2017-08-01T10:53:24.569Z,7.0
2017-08-01T10:54:26.252Z,9.3
2017-08-01T10:55:27.926Z,7.2
2017-08-01T10:56:29.610Z,5.1
2017-08-01T10:57:31.293Z,4.7
2017-08-01T10:58:32.974Z,5.7
2017-08-01T10:59:34.654Z,5.5
2017-08-01T11:00:36.347Z,4.9
2017-08-01T11:01:38.030Z,5.7
2017-08-01T11:02:39.703Z,6.4
2017-08-01T11:03:41.392Z,8.0
2017-08-01T11:04:43.077Z,3.9
2017-08-01T11:05:44.756Z,4.5
2017-08-01T11:06:46.435Z,7.0
2017-08-01T11:07:48.112Z,4.6
2017-08-01T11:08:49.797Z,3.8
2017-08-01T11:09:51.476Z,5.8
2017-08-01T11:10:53.154Z,5.5
2017-08-01T11:11:54.824Z,4.2
2017-08-01T11:12:56.505Z,6.1
2017-08-01T11:13:58.198Z,5.1
2017-08-01T11:14:59.876Z,4.4
2017-08-01T11:16:01.554Z,4.8
2017-08-01T11:17:03.247Z,4.1
2017-08-01T11:18:04.933Z,5.2
2017-08-01T11:19:06.609Z,5.6
2017-08-01T11:20:08.303Z,6.2
2017-08-01T11:21:09.978Z,4.7
2017-08-01T11:22:11.657Z,4.5
2017-08-01T11:23:13.338Z,4.2
2017-08-01T11:24:15.037Z,5.0
2017-08-01T11:25:16.718Z,6.6
2017-08-01T11:26:18.399Z,4.9
2017-08-01T11:27:20.092Z,5.0
2017-08-01T11:28:21.768Z,6.5
2017-08-01T11:29:23.452Z,4.8
2017-08-01T11:30:25.140Z,5.0
2017-08-01T11:31:26.827Z,5.2
2017-08-01T11:32:28.489Z,6.6
2017-08-01T11:33:30.166Z,5.8
2017-08-01T11:34:31.838Z,7.1
2017-08-01T11:35:33.507Z,4.2
2017-08-01T11:36:35.186Z,3.9
2017-08-01T11:37:36.864Z,6.3
2017-08-01T11:38:38.544Z,4.9
2017-08-01T11:39:40.216Z,4.5
2017-08-01T11:40:41.888Z,4.5
2017-08-01T11:41:43.566Z,7.0
2017-08-01T11:42:45.236Z,5.9
2017-08-01T11:43:46.909Z,5.1
2017-08-01T11:44:48.582Z,5.9
2017-08-01T11:45:50.262Z,8.7
2017-08-01T11:46:51.932Z,5.4
2017-08-01T11:47:53.605Z,4.4
2017-08-01T11:48:55.281Z,4.7
2017-08-01T11:49:56.955Z,6.4
2017-08-01T11:50:58.632Z,5.2
2017-08-01T11:52:00.306Z,7.2
2017-08-01T11:53:01.977Z,6.5
2017-08-01T11:54:03.647Z,4.6
2017-08-01T11:55:05.340Z,5.8
2017-08-01T11:56:07.012Z,6.5
2017-08-01T11:57:08.684Z,6.0
2017-08-01T11:58:10.367Z,6.8
2017-08-01T11:59:12.033Z,6.6
2017-08-01T12:00:13.704Z,5.7
2017-08-01T12:01:15.394Z,6.4
2017-08-01T12:02:17.063Z,6.7
2017-08-01T12:03:18.746Z,6.3
2017-08-01T12:04:20.456Z,6.2
2017-08-01T12:05:22.132Z,6.4
2017-08-01T12:06:23.800Z,6.7
2017-08-01T12:07:25.480Z,6.9
2017-08-01T12:08:27.153Z,7.9
2017-08-01T12:09:28.826Z,7.3
2017-08-01T12:10:30.572Z,7.7
2017-08-01T12:11:32.198Z,7.4
2017-08-01T12:12:33.865Z,6.2
2017-08-01T12:13:35.547Z,5.8
2017-08-01T12:14:37.217Z,6.3
2017-08-01T12:15:38.892Z,6.7
2017-08-01T12:16:40.571Z,5.3
2017-08-01T12:17:42.235Z,5.6
2017-08-01T12:18:43.909Z,6.7
2017-08-01T12:19:45.575Z,6.2
2017-08-01T12:20:47.250Z,7.4
2017-08-01T12:21:48.924Z,6.7
2017-08-01T12:22:50.590Z,6.9
2017-08-01T12:23:52.259Z,6.6
2017-08-01T12:24:53.925Z,7.3
2017-08-01T12:25:55.596Z,8.1
2017-08-01T12:26:57.259Z,9.5
2017-08-01T12:27:58.936Z,5.4
2017-08-01T12:29:00.646Z,6.4
2017-08-01T12:30:02.318Z,8.2
2017-08-01T12:31:03.988Z,5.7
2017-08-01T12:32:05.652Z,5.9
2017-08-01T12:33:07.336Z,6.8
2017-08-01T12:34:09.010Z,9.4
2017-08-01T12:35:10.684Z,8.6
2017-08-01T12:36:12.356Z,7.7
2017-08-01T12:37:14.031Z,7.7
2017-08-01T12:38:15.706Z,7.4
2017-08-01T12:39:17.381Z,10.6
2017-08-01T12:40:19.047Z,6.9
2017-08-01T12:41:20.715Z,9.0
2017-08-01T12:42:22.383Z,6.2
2017-08-01T12:43:24.062Z,7.2
2017-08-01T12:44:25.752Z,8.1
2017-08-01T12:45:27.437Z,8.2
2017-08-01T12:46:29.113Z,8.5
2017-08-01T12:47:30.782Z,10.6
2017-08-01T12:48:32.499Z,7.3
2017-08-01T12:49:34.171Z,9.5
2017-08-01T12:50:35.845Z,8.1
2017-08-01T12:51:37.517Z,7.5
2017-08-01T12:52:39.189Z,7.9
2017-08-01T12:53:40.863Z,8.2
2017-08-01T12:54:42.537Z,6.7
2017-08-01T12:55:44.206Z,7.1
2017-08-01T12:56:45.893Z,7.5
2017-08-01T12:57:47.567Z,6.2
2017-08-01T12:58:49.244Z,10.5
2017-08-01T12:59:50.914Z,7.8
2017-08-01T13:00:52.608Z,8.2
2017-08-01T13:01:54.276Z,6.6
2017-08-01T13:02:55.951Z,6.5
2017-08-01T13:03:57.633Z,7.2
2017-08-01T13:04:59.317Z,6.9
2017-08-01T13:06:00.994Z,5.1
2017-08-01T13:07:02.669Z,7.3
2017-08-01T13:08:04.351Z,6.4
2017-08-01T13:09:06.025Z,5.6
2017-08-01T13:10:07.713Z,6.5
2017-08-01T13:11:09.403Z,6.0
2017-08-01T13:12:11.076Z,5.3
2017-08-01T13:13:12.744Z,6.7
2017-08-01T13:14:14.454Z,6.1
2017-08-01T13:15:16.127Z,9.0
2017-08-01T13:16:17.802Z,4.3
2017-08-01T13:17:19.479Z,5.4
2017-08-01T13:18:21.164Z,5.0
2017-08-01T13:19:22.841Z,4.3
2017-08-01T13:20:24.529Z,4.4
2017-08-01T13:21:26.194Z,6.6
2017-08-01T13:22:27.869Z,4.6
2017-08-01T13:23:29.544Z,7.2
2017-08-01T13:24:31.217Z,7.4
2017-08-01T13:25:32.893Z,7.5
2017-08-01T13:26:34.582Z,8.6
2017-08-01T13:27:36.243Z,7.9
2017-08-01T13:28:37.937Z,6.2
2017-08-01T13:29:39.616Z,9.5
2017-08-01T13:30:41.297Z,6.1
2017-08-01T13:31:42.974Z,9.3
2017-08-01T13:32:44.649Z,6.8
2017-08-01T13:33:46.315Z,6.0
2017-08-01T13:34:47.982Z,6.9
2017-08-01T13:35:49.654Z,6.4
2017-08-01T13:36:51.328Z,5.6
2017-08-01T13:37:53.006Z,7.2
2017-08-01T13:38:54.681Z,5.4
2017-08-01T13:39:56.371Z,4.9
2017-08-01T13:40:58.059Z,5.7
2017-08-01T13:41:59.743Z,5.6
2017-08-01T13:43:01.432Z,6.2
2017-08-01T13:44:03.109Z,6.4
2017-08-01T13:45:04.786Z,5.6
2017-08-01T13:46:06.465Z,6.9
2017-08-01T13:47:08.161Z,6.3
2017-08-01T13:48:09.815Z,5.8
2017-08-01T13:49:11.712Z,4.9
2017-08-01T13:50:13.383Z,5.4
2017-08-01T13:51:15.047Z,4.9
2017-08-01T13:52:16.726Z,5.3
2017-08-01T13:53:18.408Z,7.0
2017-08-01T13:54:20.079Z,4.7
2017-08-01T13:55:21.757Z,6.3
2017-08-01T13:56:23.427Z,5.4
2017-08-01T13:57:25.100Z,5.6
2017-08-01T13:58:26.768Z,5.5
2017-08-01T13:59:28.450Z,5.6
2017-08-01T14:00:30.120Z,5.1
2017-08-01T14:01:31.797Z,5.8
2017-08-01T14:02:33.469Z,5.5
2017-08-01T14:03:35.135Z,4.8
2017-08-01T14:04:36.816Z,6.7
2017-08-01T14:05:38.488Z,5.5
2017-08-01T14:06:40.192Z,4.8
2017-08-01T14:07:41.859Z,5.2
2017-08-01T14:08:43.561Z,4.7
2017-08-01T14:09:45.235Z,9.0
2017-08-01T14:10:46.901Z,8.1
2017-08-01T14:11:48.571Z,5.8
2017-08-01T14:12:50.240Z,6.3
2017-08-01T14:13:51.926Z,7.2
2017-08-01T14:14:53.583Z,5.4
2017-08-01T14:15:55.254Z,6.2
2017-08-01T14:16:56.928Z,5.9
2017-08-01T14:17:58.599Z,5.3
2017-08-01T14:19:00.265Z,8.7
2017-08-01T14:20:01.941Z,5.9
2017-08-01T14:21:03.620Z,5.9
2017-08-01T14:22:05.396Z,5.7
2017-08-01T14:23:07.079Z,6.5
2017-08-01T14:24:08.749Z,4.4
2017-08-01T14:25:10.428Z,8.8
2017-08-01T14:26:12.118Z,8.1
2017-08-01T14:27:13.790Z,4.7
2017-08-01T14:28:15.477Z,4.4
2017-08-01T14:29:17.150Z,8.6
2017-08-01T14:30:18.833Z,8.0
2017-08-01T14:31:20.507Z,5.1
2017-08-01T14:32:22.171Z,5.9
2017-08-01T14:33:23.839Z,7.5
2017-08-01T14:34:25.519Z,4.8
2017-08-01T14:35:27.195Z,6.9
2017-08-01T14:36:28.865Z,5.7
2017-08-01T14:37:30.538Z,5.6
2017-08-01T14:38:32.225Z,7.9
2017-08-01T14:39:33.894Z,5.7
2017-08-01T14:40:35.564Z,5.2
2017-08-01T14:41:37.234Z,5.7
2017-08-01T14:42:38.905Z,6.7
2017-08-01T14:43:40.584Z,6.4
2017-08-01T14:44:42.260Z,8.7
2017-08-01T14:45:43.933Z,7.2
2017-08-01T14:46:45.605Z,6.1
2017-08-01T14:47:47.367Z,6.9
2017-08-01T14:48:49.046Z,7.0
2017-08-01T14:49:50.715Z,8.6
2017-08-01T14:50:52.387Z,7.3
2017-08-01T14:51:54.058Z,7.8
2017-08-01T14:52:55.729Z,6.2
2017-08-01T14:53:57.392Z,9.3
2017-08-01T14:54:59.056Z,5.4
2017-08-01T14:56:00.725Z,7.5
2017-08-01T14:57:02.415Z,6.8
2017-08-01T14:58:04.077Z,8.1
2017-08-01T14:59:05.759Z,10.1
2017-08-01T15:00:07.469Z,8.8
2017-08-01T15:01:09.126Z,9.4
2017-08-01T15:02:10.805Z,8.9
2017-08-01T15:03:12.470Z,7.0
2017-08-01T15:04:14.154Z,7.1
2017-08-01T15:05:15.824Z,7.3
2017-08-01T15:06:17.494Z,6.7
2017-08-01T15:07:19.172Z,7.4
2017-08-01T15:08:20.844Z,8.5
2017-08-01T15:09:22.514Z,7.7
2017-08-01T15:10:24.185Z,7.5
2017-08-01T15:11:25.857Z,5.1
2017-08-01T15:12:27.525Z,6.8
2017-08-01T15:13:29.198Z,6.4
2017-08-01T15:14:30.871Z,5.8
2017-08-01T15:15:32.564Z,7.4
2017-08-01T15:16:34.242Z,7.8
2017-08-01T15:17:35.910Z,8.9
2017-08-01T15:18:37.582Z,6.7
2017-08-01T15:19:39.259Z,6.9
2017-08-01T15:20:40.933Z,5.9
2017-08-01T15:21:42.601Z,5.8
2017-08-01T15:22:44.268Z,5.4
2017-08-01T15:23:45.934Z,5.1
2017-08-01T15:24:47.604Z,7.9
2017-08-01T15:25:49.279Z,8.6
2017-08-01T15:26:50.952Z,7.2
2017-08-01T15:27:52.633Z,5.2
2017-08-01T15:28:54.306Z,7.7
2017-08-01T15:29:55.981Z,5.3
2017-08-01T15:30:57.657Z,5.7
2017-08-01T15:31:59.325Z,6.2
2017-08-01T15:33:01.008Z,5.7
2017-08-01T15:34:02.685Z,4.9
2017-08-01T15:35:04.359Z,4.4
2017-08-01T15:36:06.040Z,8.4
2017-08-01T15:37:07.718Z,4.9
2017-08-01T15:38:09.387Z,6.1
2017-08-01T15:39:11.071Z,4.6
2017-08-01T15:40:12.746Z,6.1
2017-08-01T15:41:14.416Z,4.4
2017-08-01T15:42:16.091Z,3.9
2017-08-01T15:43:17.771Z,4.6
2017-08-01T15:44:19.439Z,4.3
2017-08-01T15:45:21.111Z,4.9
2017-08-01T15:46:22.788Z,4.6
2017-08-01T15:47:24.460Z,6.4
2017-08-01T15:48:26.151Z,3.4
2017-08-01T15:49:27.816Z,3.2
2017-08-01T15:50:29.492Z,4.4
2017-08-01T15:51:31.168Z,6.2
2017-08-01T15:52:32.844Z,6.7
2017-08-01T15:53:34.513Z,6.2
2017-08-01T15:54:36.186Z,5.4
2017-08-01T15:55:37.863Z,6.4
2017-08-01T15:56:39.545Z,4.3
2017-08-01T15:57:41.224Z,4.2
2017-08-01T15:58:42.898Z,6.0
2017-08-01T15:59:44.570Z,4.4
2017-08-01T16:00:46.242Z,4.4
2017-08-01T16:01:47.941Z,5.7
2017-08-01T16:02:49.613Z,4.5
2017-08-01T16:03:51.290Z,5.8
2017-08-01T16:04:52.977Z,6.5
2017-08-01T16:05:54.661Z,4.4
2017-08-01T16:06:56.339Z,4.5
2017-08-01T16:07:58.016Z,3.8
2017-08-01T16:08:59.698Z,5.8
2017-08-01T16:10:01.368Z,5.3
2017-08-01T16:11:03.045Z,6.5
2017-08-01T16:12:04.713Z,5.1
2017-08-01T16:13:06.386Z,3.9
2017-08-01T16:14:08.070Z,4.2
2017-08-01T16:15:09.736Z,4.8
2017-08-01T16:16:11.424Z,5.4
2017-08-01T16:17:13.103Z,7.5
2017-08-01T16:18:14.866Z,4.5
2017-08-01T16:19:16.558Z,4.6
2017-08-01T16:20:18.228Z,6.2
2017-08-01T16:21:19.896Z,4.8
2017-08-01T16:22:21.569Z,5.3
2017-08-01T16:23:23.238Z,7.7
2017-08-01T16:24:24.910Z,7.2
2017-08-01T16:25:26.589Z,3.9
2017-08-01T16:26:28.261Z,4.4
2017-08-01T16:27:29.929Z,5.4
2017-08-01T16:28:32.310Z,7.5
2017-08-01T16:29:33.977Z,7.3
2017-08-01T16:30:35.650Z,6.0
2017-08-01T16:31:37.325Z,5.6
2017-08-01T16:32:39.001Z,7.4
2017-08-01T16:33:40.673Z,5.5
2017-08-01T16:34:42.338Z,3.9
2017-08-01T16:35:44.008Z,6.2
2017-08-01T16:36:45.691Z,5.8
2017-08-01T16:37:47.363Z,4.9
2017-08-01T16:38:49.042Z,6.5
2017-08-01T16:39:50.715Z,5.0
2017-08-01T16:40:52.398Z,4.6
2017-08-01T16:41:54.065Z,3.2
2017-08-01T16:42:55.750Z,3.8
2017-08-01T16:43:57.416Z,5.1
2017-08-01T16:44:59.093Z,5.2
2017-08-01T16:46:00.773Z,4.0
2017-08-01T16:47:02.461Z,5.6
2017-08-01T16:48:04.125Z,5.7
2017-08-01T16:49:05.792Z,3.5
2017-08-01T16:50:07.467Z,4.6
2017-08-01T16:51:09.166Z,4.4
2017-08-01T16:52:10.842Z,3.4
2017-08-01T16:53:12.516Z,4.4
2017-08-01T16:54:14.201Z,3.7
2017-08-01T16:55:15.866Z,4.3
2017-08-01T16:56:17.552Z,3.2
2017-08-01T16:57:19.224Z,6.4
2017-08-01T16:58:20.894Z,5.6
2017-08-01T16:59:22.574Z,5.5
2017-08-01T17:00:24.241Z,4.8
2017-08-01T17:01:25.915Z,4.4
2017-08-01T17:02:27.588Z,6.6
2017-08-01T17:03:29.260Z,4.9
2017-08-01T17:04:30.927Z,7.5
2017-08-01T17:05:32.600Z,5.6
2017-08-01T17:06:34.267Z,4.8
2017-08-01T17:07:35.966Z,4.2
2017-08-01T17:08:37.611Z,5.4
2017-08-01T17:09:39.312Z,9.3
2017-08-01T17:10:40.982Z,4.1
2017-08-01T17:11:42.656Z,5.9
2017-08-01T17:12:44.332Z,7.0
2017-08-01T17:13:46.013Z,5.1
2017-08-01T17:14:47.693Z,5.7
2017-08-01T17:15:49.369Z,4.5
2017-08-01T17:16:51.068Z,6.4
2017-08-01T17:17:52.757Z,3.6
2017-08-01T17:18:54.432Z,3.8
2017-08-01T17:19:56.113Z,4.6
2017-08-01T17:20:57.787Z,4.3
2017-08-01T17:21:59.473Z,4.5
2017-08-01T17:23:01.141Z,4.3
2017-08-01T17:24:02.820Z,3.6
2017-08-01T17:25:04.486Z,4.0
2017-08-01T17:26:06.174Z,4.0
2017-08-01T17:27:07.845Z,6.1
2017-08-01T17:28:09.510Z,7.3
2017-08-01T17:29:11.183Z,5.4
2017-08-01T17:30:12.865Z,6.9
2017-08-01T17:31:14.531Z,4.3
2017-08-01T17:32:16.192Z,6.7
2017-08-01T17:33:17.873Z,5.4
2017-08-01T17:34:19.543Z,5.3
2017-08-01T17:35:21.200Z,5.5
2017-08-01T17:36:22.871Z,4.9
2017-08-01T17:37:24.554Z,4.4
2017-08-01T17:38:26.226Z,6.3
2017-08-01T17:39:27.895Z,6.3
2017-08-01T17:40:29.568Z,5.1
2017-08-01T17:41:31.244Z,4.4
2017-08-01T17:42:32.919Z,5.2
2017-08-01T17:43:34.605Z,4.4
2017-08-01T17:44:36.281Z,4.2
2017-08-01T17:45:37.948Z,4.0
2017-08-01T17:46:39.623Z,5.1
2017-08-01T17:47:41.287Z,4.2
2017-08-01T17:48:42.956Z,5.3
2017-08-01T17:49:44.623Z,3.7
2017-08-01T17:50:46.300Z,5.1
2017-08-01T17:51:47.960Z,3.6
2017-08-01T17:52:49.645Z,5.4
2017-08-01T17:53:51.329Z,6.5
2017-08-01T17:54:52.998Z,3.8
2017-08-01T17:55:54.694Z,6.7
2017-08-01T17:56:56.356Z,4.5
2017-08-01T17:57:58.028Z,4.4
2017-08-01T17:58:59.714Z,5.2
2017-08-01T18:00:01.387Z,5.0
2017-08-01T18:01:03.060Z,5.6
2017-08-01T18:02:04.718Z,4.3
2017-08-01T18:03:06.385Z,7.4
2017-08-01T18:04:08.058Z,5.9
2017-08-01T18:05:09.734Z,8.5
2017-08-01T18:06:11.399Z,8.0
2017-08-01T18:07:13.074Z,4.4
2017-08-01T18:08:14.738Z,5.1
2017-08-01T18:09:16.405Z,6.4
2017-08-01T18:10:18.075Z,6.9
2017-08-01T18:11:19.741Z,6.6
2017-08-01T18:12:21.404Z,8.5
2017-08-01T18:13:23.075Z,7.0
2017-08-01T18:14:24.748Z,5.1
2017-08-01T18:15:26.415Z,8.2
2017-08-01T18:16:28.082Z,3.6
2017-08-01T18:17:29.748Z,5.1
2017-08-01T18:18:31.409Z,7.5
2017-08-01T18:19:33.079Z,6.1
2017-08-01T18:20:34.750Z,5.1
2017-08-01T18:21:36.417Z,6.0
2017-08-01T18:22:38.084Z,7.4
2017-08-01T18:23:39.768Z,5.5